createdAt,value
2023-10-02T00:01:10.658Z,19.10
2023-10-02T00:03:43.247Z,21.05
2023-10-02T00:06:11.282Z,19.10
2023-10-02T00:08:50.518Z,20.63
2023-10-02T00:11:43.116Z,19.67
2023-10-02T00:14:21.554Z,19.42
2023-10-02T00:17:07.894Z,17.35
2023-10-02T00:19:48.439Z,21.23
2023-10-02T00:22:39.501Z,26.98
2023-10-02T00:25:28.603Z,21.08
2023-10-02T00:27:56.482Z,19.33
2023-10-02T00:30:37.902Z,25.23
2023-10-02T00:33:06.781Z,21.58
2023-10-02T00:35:50.627Z,18.58
2023-10-02T00:38:17.512Z,19.27
2023-10-02T00:40:44.278Z,20.45
2023-10-02T00:43:31.450Z,17.77
2023-10-02T00:46:01.575Z,18.15
2023-10-02T00:48:30.284Z,18.58
2023-10-02T00:51:07.262Z,18.98
2023-10-02T00:53:41.879Z,18.08
2023-10-02T00:56:22.837Z,20.95
2023-10-02T00:59:01.963Z,22.30
2023-10-02T01:01:32.451Z,18.75
2023-10-02T01:04:25.356Z,21.65
2023-10-02T01:06:56.896Z,16.58
2023-10-02T01:09:27.685Z,18.17
2023-10-02T01:11:58.894Z,20.70
2023-10-02T01:14:52.764Z,21.08
2023-10-02T01:17:25.074Z,20.77
2023-10-02T01:19:55.687Z,22.50
2023-10-02T01:22:29.205Z,17.50
2023-10-02T01:25:07.502Z,22.23
2023-10-02T01:27:43.220Z,22.35
2023-10-02T01:30:23.171Z,20.48
2023-10-02T01:33:18.880Z,21.50
2023-10-02T01:35:58.587Z,19.70
2023-10-02T01:38:33.358Z,18.60
2023-10-02T01:41:09.559Z,20.95
2023-10-02T01:43:40.570Z,19.25
2023-10-02T01:46:08.646Z,19.15
2023-10-02T01:48:41.405Z,21.42
2023-10-02T01:51:23.129Z,18.13
2023-10-02T01:54:17.027Z,21.27
2023-10-02T01:56:48.417Z,18.85
2023-10-02T01:59:20.871Z,21.35
2023-10-02T02:01:56.551Z,19.70
2023-10-02T02:04:24.893Z,19.63
2023-10-02T02:06:59.263Z,19.13
2023-10-02T02:09:34.579Z,22.05
2023-10-02T02:12:10.093Z,23.77
2023-10-02T02:14:43.158Z,21.45
2023-10-02T02:17:12.116Z,22.73
2023-10-02T02:19:49.680Z,22.52
2023-10-02T02:22:24.723Z,20.80
2023-10-02T02:24:52.329Z,17.92
2023-10-02T02:27:20.519Z,23.55
2023-10-02T02:29:48.344Z,21.85
2023-10-02T02:32:18.748Z,25.25
2023-10-02T02:34:45.360Z,18.02
2023-10-02T02:37:12.034Z,19.25
2023-10-02T02:39:38.894Z,20.70
2023-10-02T02:42:19.885Z,19.17
2023-10-02T02:44:51.320Z,21.38
2023-10-02T02:47:20.940Z,22.85
2023-10-02T02:49:50.234Z,21.33
2023-10-02T02:52:34.051Z,19.75
2023-10-02T02:55:06.676Z,21.02
2023-10-02T02:57:34.829Z,20.77
2023-10-02T03:00:23.259Z,21.33
2023-10-02T03:02:53.999Z,20.38
2023-10-02T03:05:23.898Z,23.35
2023-10-02T03:07:55.861Z,23.33
2023-10-02T03:10:26.170Z,24.00
2023-10-02T03:12:58.901Z,20.85
2023-10-02T03:15:44.291Z,21.88
2023-10-02T03:18:44.419Z,22.45
2023-10-02T03:21:26.310Z,22.00
2023-10-02T03:24:02.429Z,19.55
2023-10-02T03:26:37.593Z,21.50
2023-10-02T03:29:19.844Z,17.67
2023-10-02T03:31:55.563Z,21.67
2023-10-02T03:34:29.815Z,22.23
2023-10-02T03:37:18.640Z,20.25
2023-10-02T03:39:55.293Z,20.55
2023-10-02T03:42:26.764Z,21.65
2023-10-02T03:44:59.743Z,24.70
2023-10-02T03:47:32.552Z,22.38
2023-10-02T03:50:03.384Z,21.70
2023-10-02T03:52:32.925Z,19.38
2023-10-02T03:55:16.716Z,19.30
2023-10-02T03:57:59.207Z,19.35
2023-10-02T04:00:25.945Z,23.67
2023-10-02T04:02:54.117Z,23.05
2023-10-02T04:05:34.957Z,25.73
2023-10-02T04:08:36.590Z,19.80
2023-10-02T04:11:08.748Z,20.60
2023-10-02T04:13:42.522Z,22.27
2023-10-02T04:16:27.699Z,23.17
2023-10-02T04:19:06.881Z,19.05
2023-10-02T04:21:43.792Z,21.73
2023-10-02T04:24:13.353Z,22.33
2023-10-02T04:26:56.684Z,20.35
2023-10-02T04:29:26.363Z,16.98
2023-10-02T04:32:12.098Z,22.50
2023-10-02T04:34:51.720Z,22.23
2023-10-02T04:37:21.797Z,21.73
2023-10-02T04:39:58.104Z,20.55
2023-10-02T04:42:52.548Z,20.58
2023-10-02T04:45:22.686Z,20.23
2023-10-02T04:47:49.556Z,20.95
2023-10-02T04:50:25.232Z,19.65
2023-10-02T04:52:59.418Z,21.90
2023-10-02T04:55:43.566Z,21.42
2023-10-02T04:58:16.028Z,21.08
2023-10-02T05:01:05.517Z,19.55
2023-10-02T05:03:38.470Z,18.95
2023-10-02T05:06:08.013Z,21.58
2023-10-02T05:08:42.656Z,20.73
2023-10-02T05:11:25.600Z,25.50
2023-10-02T05:13:59.262Z,21.92
2023-10-02T05:19:09.986Z,21.13
2023-10-02T05:21:40.956Z,18.92
2023-10-02T05:24:15.059Z,21.40
2023-10-02T05:26:47.461Z,22.60
2023-10-02T05:29:19.906Z,22.30
2023-10-02T05:31:49.819Z,26.30
2023-10-02T05:34:28.010Z,26.50
2023-10-02T05:37:10.230Z,21.30
2023-10-02T05:39:40.901Z,20.33
2023-10-02T05:42:15.245Z,21.42
2023-10-02T05:44:49.036Z,21.88
2023-10-02T05:47:18.748Z,21.48
2023-10-02T05:49:49.488Z,20.35
2023-10-02T05:52:20.012Z,24.10
2023-10-02T05:54:56.593Z,17.20
2023-10-02T05:57:33.210Z,20.55
2023-10-02T06:00:01.916Z,20.50
2023-10-02T06:02:29.190Z,24.15
2023-10-02T06:05:08.461Z,22.55
2023-10-02T06:08:01.506Z,19.73
2023-10-02T06:10:28.312Z,21.58
2023-10-02T06:13:05.417Z,25.08
2023-10-02T06:15:49.638Z,26.33
2023-10-02T06:18:26.943Z,24.67
2023-10-02T06:21:04.125Z,27.73
2023-10-02T06:23:40.819Z,25.63
2023-10-02T06:26:11.477Z,21.98
2023-10-02T06:28:39.230Z,30.55
2023-10-02T06:31:09.415Z,26.08
2023-10-02T06:33:39.614Z,24.42
2023-10-02T06:36:10.198Z,27.40
2023-10-02T06:38:37.418Z,23.10
2023-10-02T06:41:14.276Z,24.50
2023-10-02T06:43:41.936Z,25.90
2023-10-02T06:46:17.054Z,21.30
2023-10-02T06:48:48.453Z,25.77
2023-10-02T06:51:15.243Z,21.52
2023-10-02T06:53:42.958Z,22.27
2023-10-02T06:56:13.042Z,20.83
2023-10-02T06:58:54.001Z,24.33
2023-10-02T07:01:29.688Z,23.65
2023-10-02T07:03:58.207Z,23.42
2023-10-02T07:06:25.775Z,25.63
2023-10-02T07:09:12.174Z,23.55
2023-10-02T07:11:47.034Z,25.52
2023-10-02T07:14:13.937Z,27.05
2023-10-02T07:16:40.986Z,24.70
2023-10-02T07:19:07.788Z,23.67
2023-10-02T07:21:37.057Z,25.42
2023-10-02T07:24:05.217Z,23.88
2023-10-02T07:26:55.648Z,26.63
2023-10-02T07:29:39.085Z,25.98
2023-10-02T07:32:09.480Z,26.80
2023-10-02T07:34:39.894Z,26.17
2023-10-02T07:37:22.745Z,24.02
2023-10-02T07:39:59.487Z,23.10
2023-10-02T07:42:30.496Z,27.95
2023-10-02T07:45:12.850Z,25.50
2023-10-02T07:47:57.140Z,29.88
2023-10-02T07:50:48.521Z,29.55
2023-10-02T07:53:15.814Z,23.40
2023-10-02T07:55:48.895Z,26.85
2023-10-02T07:58:18.725Z,32.20
2023-10-02T08:00:47.235Z,25.25
2023-10-02T08:03:34.013Z,25.40
2023-10-02T08:09:32.077Z,23.23
2023-10-02T08:11:59.775Z,27.25
2023-10-02T08:14:48.263Z,26.90
2023-10-02T08:17:29.000Z,24.17
2023-10-02T08:20:01.040Z,29.08
2023-10-02T08:22:45.994Z,25.98
2023-10-02T08:25:17.481Z,31.00
2023-10-02T08:28:04.683Z,27.83
2023-10-02T08:30:43.483Z,26.60
2023-10-02T08:33:35.784Z,26.50
2023-10-02T08:36:02.650Z,21.08
2023-10-02T08:38:29.532Z,24.80
2023-10-02T08:41:05.034Z,24.85
2023-10-02T08:43:33.817Z,28.83
2023-10-02T08:46:01.378Z,25.95
2023-10-02T08:48:33.342Z,24.58
2023-10-02T08:51:00.403Z,24.15
2023-10-02T08:53:27.812Z,24.45
2023-10-02T08:56:13.047Z,35.25
2023-10-02T08:58:39.685Z,26.75
2023-10-02T09:01:24.262Z,24.75
2023-10-02T09:04:11.113Z,29.30
2023-10-02T09:06:45.754Z,25.55
2023-10-02T09:09:24.489Z,29.67
2023-10-02T09:11:54.813Z,29.33
2023-10-02T09:14:40.827Z,29.60
2023-10-02T09:17:13.740Z,30.05
2023-10-02T09:19:42.926Z,41.55
2023-10-02T09:22:29.194Z,31.15
2023-10-02T09:25:28.058Z,27.17
2023-10-02T09:27:58.343Z,23.90
2023-10-02T09:30:41.035Z,26.27
2023-10-02T09:33:37.765Z,29.15
2023-10-02T09:36:39.954Z,27.42
2023-10-02T09:39:22.930Z,27.85
2023-10-02T09:42:07.296Z,30.23
2023-10-02T09:44:47.560Z,26.25
2023-10-02T09:47:17.825Z,24.80
2023-10-02T09:50:12.069Z,28.17
2023-10-02T09:53:01.840Z,26.95
2023-10-02T09:55:41.803Z,28.52
2023-10-02T09:58:28.170Z,25.80
2023-10-02T10:01:36.856Z,24.35
2023-10-02T10:04:23.785Z,25.02
2023-10-02T10:07:30.172Z,29.23
2023-10-02T10:10:32.513Z,28.63
2023-10-02T10:13:11.270Z,23.88
2023-10-02T10:15:46.349Z,25.65
2023-10-02T10:18:15.866Z,23.92
2023-10-02T10:20:48.572Z,30.10
2023-10-02T10:23:48.502Z,37.83
2023-10-02T10:26:40.781Z,27.95
2023-10-02T10:29:43.300Z,35.13
2023-10-02T10:32:20.544Z,25.23
2023-10-02T10:35:14.211Z,20.90
2023-10-02T10:37:50.710Z,27.02
2023-10-02T10:40:45.897Z,28.20
2023-10-02T10:43:15.831Z,24.25
2023-10-02T10:45:42.827Z,21.48
2023-10-02T10:48:25.251Z,24.00
2023-10-02T10:51:07.821Z,25.70
2023-10-02T10:53:34.651Z,22.47
2023-10-02T10:56:18.196Z,21.45
2023-10-02T10:58:45.950Z,24.15
2023-10-02T11:01:21.999Z,24.38
2023-10-02T11:03:56.086Z,22.60
2023-10-02T11:06:23.728Z,21.42
2023-10-02T11:09:14.038Z,25.10
2023-10-02T11:11:54.739Z,18.02
2023-10-02T11:14:52.768Z,24.85
2023-10-02T11:17:33.699Z,23.02
2023-10-02T11:20:40.364Z,24.85
2023-10-02T11:23:07.171Z,21.77
2023-10-02T11:25:35.595Z,22.80
2023-10-02T11:28:02.317Z,23.88
2023-10-02T11:30:38.262Z,23.40
2023-10-02T11:33:29.044Z,21.27
2023-10-02T11:35:58.155Z,24.73
2023-10-02T11:38:25.000Z,21.20
2023-10-02T11:40:58.622Z,20.58
2023-10-02T11:43:25.418Z,24.08
2023-10-02T11:45:52.117Z,23.35
2023-10-02T11:48:18.839Z,22.25
2023-10-02T11:50:45.587Z,21.42
2023-10-02T11:53:13.410Z,25.25
2023-10-02T11:55:52.108Z,25.13
2023-10-02T11:58:25.775Z,23.45
2023-10-02T12:00:52.517Z,21.58
2023-10-02T12:03:19.705Z,25.48
2023-10-02T12:05:46.574Z,20.15
2023-10-02T12:08:13.348Z,21.48
2023-10-02T12:10:40.664Z,17.70
2023-10-02T12:13:09.592Z,22.10
2023-10-02T12:16:01.827Z,20.13
2023-10-02T12:18:28.389Z,24.77
2023-10-02T12:20:58.137Z,24.15
2023-10-02T12:23:24.753Z,26.27
2023-10-02T12:25:51.653Z,23.05
2023-10-02T12:28:18.386Z,21.42
2023-10-02T12:30:45.197Z,24.73
2023-10-02T12:33:13.436Z,23.67
2023-10-02T12:35:41.431Z,26.75
2023-10-02T12:38:08.542Z,27.00
2023-10-02T12:40:35.415Z,24.83
2023-10-02T12:43:02.394Z,22.00
2023-10-02T12:45:36.227Z,20.88
2023-10-02T12:48:07.571Z,24.40
2023-10-02T12:50:41.110Z,26.83
2023-10-02T12:53:08.034Z,21.60
2023-10-02T12:55:37.589Z,20.67
2023-10-02T12:58:05.405Z,22.90
2023-10-02T13:00:35.085Z,24.17
2023-10-02T13:03:03.549Z,22.92
2023-10-02T13:05:31.063Z,22.33
2023-10-02T13:07:57.926Z,21.00
2023-10-02T13:10:29.431Z,22.20
2023-10-02T13:12:58.777Z,26.55
2023-10-02T13:15:27.009Z,20.92
2023-10-02T13:17:55.133Z,21.30
2023-10-02T13:20:21.925Z,27.95
2023-10-02T13:22:48.554Z,23.63
2023-10-02T13:25:15.436Z,23.75
2023-10-02T13:27:42.411Z,23.50
2023-10-02T13:30:12.757Z,27.08
2023-10-02T13:32:41.784Z,24.35
2023-10-02T13:35:10.703Z,29.60
2023-10-02T13:37:39.122Z,29.90
2023-10-02T13:40:19.812Z,24.77
2023-10-02T13:42:50.674Z,20.55
2023-10-02T13:45:20.318Z,26.08
2023-10-02T13:47:47.882Z,27.15
2023-10-02T13:50:14.743Z,25.48
2023-10-02T13:52:42.084Z,25.25
2023-10-02T13:55:20.847Z,24.80
2023-10-02T13:57:52.151Z,27.23
2023-10-02T14:00:21.372Z,23.33
2023-10-02T14:02:49.430Z,22.15
2023-10-02T14:05:16.974Z,24.88
2023-10-02T14:07:44.832Z,24.33
2023-10-02T14:10:14.241Z,24.52
2023-10-02T14:12:44.672Z,20.05
2023-10-02T14:15:18.845Z,26.85
2023-10-02T14:17:56.872Z,20.67
2023-10-02T14:20:24.083Z,23.25
2023-10-02T14:22:52.061Z,21.05
2023-10-02T14:25:29.103Z,25.17
2023-10-02T14:27:56.507Z,23.90
2023-10-02T14:30:24.134Z,26.45
2023-10-02T14:32:51.144Z,23.17
2023-10-02T14:35:22.092Z,21.73
2023-10-02T14:37:53.683Z,23.27
2023-10-02T14:46:10.477Z,25.60
2023-10-02T14:54:01.864Z,23.13
2023-10-02T14:56:28.546Z,25.27
2023-10-02T14:58:55.348Z,27.05
2023-10-02T15:01:26.390Z,23.75
2023-10-02T15:03:54.270Z,23.25
2023-10-02T15:06:21.069Z,24.98
2023-10-02T15:08:47.936Z,30.25
2023-10-02T15:11:16.762Z,31.45
2023-10-02T15:13:44.673Z,23.15
2023-10-02T15:18:58.777Z,24.85
2023-10-02T15:21:29.610Z,27.85
2023-10-02T15:23:59.558Z,25.30
2023-10-02T15:26:34.061Z,28.70
2023-10-02T15:29:02.592Z,26.88
2023-10-02T15:31:29.554Z,28.00
2023-10-02T15:33:56.368Z,25.58
2023-10-02T15:36:23.212Z,25.20
2023-10-02T15:38:50.180Z,30.15
2023-10-02T15:41:47.545Z,30.33
2023-10-02T15:44:22.563Z,29.30
2023-10-02T15:46:52.736Z,24.65
2023-10-02T15:49:20.606Z,26.05
2023-10-02T15:51:48.161Z,26.65
2023-10-02T15:54:14.807Z,25.58
2023-10-02T15:56:41.513Z,30.45
2023-10-02T15:59:09.357Z,26.75
2023-10-02T16:01:36.292Z,26.77
2023-10-02T16:04:08.473Z,27.92
2023-10-02T16:06:42.696Z,27.42
2023-10-02T16:09:15.866Z,27.95
2023-10-02T16:11:42.537Z,30.08
2023-10-02T16:14:09.348Z,27.70
2023-10-02T16:16:36.245Z,30.88
2023-10-02T16:19:03.093Z,34.53
2023-10-02T16:21:30.680Z,32.45
2023-10-02T16:23:59.425Z,29.63
2023-10-02T16:26:29.414Z,31.55
2023-10-02T16:28:57.182Z,34.45
2023-10-02T16:31:27.068Z,28.48
2023-10-02T16:33:54.081Z,28.08
2023-10-02T16:36:25.491Z,37.60
2023-10-02T16:39:06.745Z,32.08
2023-10-02T16:41:36.174Z,26.80
2023-10-02T16:44:20.734Z,29.20
2023-10-02T16:47:02.945Z,30.42
2023-10-02T16:49:37.345Z,30.00
2023-10-02T16:52:08.570Z,33.38
2023-10-02T16:54:35.220Z,29.05
2023-10-02T16:57:01.995Z,30.35
2023-10-02T16:59:29.942Z,26.42
2023-10-02T17:01:56.677Z,25.27
2023-10-02T17:04:26.982Z,31.67
2023-10-02T17:06:54.290Z,29.15
2023-10-02T17:09:21.542Z,29.00
2023-10-02T17:11:48.260Z,27.45
2023-10-02T17:14:15.040Z,27.52
2023-10-02T17:16:42.515Z,30.33
2023-10-02T17:19:10.571Z,32.63
2023-10-02T17:21:37.435Z,32.33
2023-10-02T17:24:06.886Z,31.75
2023-10-02T17:26:37.474Z,32.38
2023-10-02T17:29:04.608Z,30.75
2023-10-02T17:31:31.623Z,32.97
2023-10-02T17:33:59.146Z,35.40
2023-10-02T17:36:27.437Z,34.30
2023-10-02T17:38:54.141Z,32.33
2023-10-02T17:41:23.688Z,34.03
2023-10-02T17:43:51.820Z,31.45
2023-10-02T17:46:18.680Z,32.10
2023-10-02T17:48:49.206Z,28.30
2023-10-02T17:51:15.864Z,39.15
2023-10-02T17:53:42.487Z,31.58
2023-10-02T17:56:14.398Z,34.13
2023-10-02T17:58:41.083Z,34.50
2023-10-02T18:01:08.053Z,36.92
2023-10-02T18:03:39.433Z,35.83
2023-10-02T18:06:06.321Z,36.58
2023-10-02T18:08:33.081Z,39.20
2023-10-02T18:16:47.812Z,38.35
2023-10-02T18:19:16.963Z,30.88
2023-10-02T18:21:51.062Z,35.00
2023-10-02T18:24:17.795Z,36.00
2023-10-02T18:26:55.404Z,35.35
2023-10-02T18:29:25.335Z,36.67
2023-10-02T18:32:28.904Z,32.10
2023-10-02T18:34:58.722Z,39.00
2023-10-02T18:37:38.873Z,28.60
2023-10-02T18:40:09.787Z,30.70
2023-10-02T18:42:53.662Z,33.20
2023-10-02T18:49:24.610Z,30.27
2023-10-02T18:51:51.582Z,31.98
2023-10-02T19:00:21.399Z,28.25
2023-10-02T19:02:48.468Z,32.08
2023-10-02T19:05:23.867Z,33.78
2023-10-02T19:07:54.068Z,38.58
2023-10-02T19:10:20.854Z,32.60
2023-10-02T19:12:51.411Z,38.58
2023-10-02T19:15:18.912Z,32.22
2023-10-02T19:17:46.087Z,34.10
2023-10-02T19:20:16.170Z,33.30
2023-10-02T19:22:44.138Z,35.35
2023-10-02T19:25:36.608Z,29.98
2023-10-02T19:28:06.031Z,31.13
2023-10-02T19:30:35.750Z,32.28
2023-10-02T19:36:07.119Z,29.25
2023-10-02T19:38:44.460Z,26.60
2023-10-02T19:41:33.205Z,29.50
2023-10-02T19:44:07.133Z,32.42
2023-10-02T19:46:35.536Z,24.65
2023-10-02T19:49:15.004Z,31.83
2023-10-02T19:51:45.515Z,33.55
2023-10-02T19:54:12.836Z,31.95
2023-10-02T19:56:39.913Z,25.77
2023-10-02T19:59:06.812Z,29.10
2023-10-02T20:01:45.816Z,28.02
2023-10-02T20:04:18.780Z,32.45
2023-10-02T20:06:48.578Z,31.95
2023-10-02T20:09:15.325Z,32.92
2023-10-02T20:11:42.222Z,33.85
2023-10-02T20:14:11.343Z,36.90
2023-10-02T20:16:47.332Z,33.10
2023-10-02T20:19:18.545Z,29.55
2023-10-02T20:29:17.787Z,30.77
2023-10-02T20:31:45.129Z,27.60
2023-10-02T20:34:34.673Z,32.95
2023-10-02T20:37:34.232Z,33.83
2023-10-02T20:40:02.227Z,35.33
2023-10-02T20:42:29.157Z,30.20
2023-10-02T20:44:55.952Z,31.50
2023-10-02T20:47:23.141Z,35.13
2023-10-02T20:49:50.250Z,34.55
2023-10-02T20:52:20.107Z,40.53
2023-10-02T20:54:46.854Z,33.45
2023-10-02T20:57:15.021Z,34.47
2023-10-02T20:59:47.425Z,32.92
2023-10-02T21:02:19.769Z,37.20
2023-10-02T21:04:46.478Z,34.10
2023-10-02T21:07:24.877Z,32.83
2023-10-02T21:10:03.748Z,34.17
2023-10-02T21:12:49.813Z,37.47
2023-10-02T21:18:32.180Z,35.40
2023-10-02T21:20:58.864Z,37.10
2023-10-02T21:23:25.654Z,38.13
2023-10-02T21:25:52.706Z,41.00
2023-10-02T21:28:19.419Z,34.63
2023-10-02T21:30:48.684Z,34.95
2023-10-02T21:33:15.581Z,37.30
2023-10-02T21:35:44.924Z,40.58
2023-10-02T21:38:12.320Z,40.22
2023-10-02T21:40:38.984Z,41.10
2023-10-02T21:43:05.725Z,36.95
2023-10-02T21:45:41.704Z,40.30
2023-10-02T21:48:14.978Z,39.28
2023-10-02T21:50:42.050Z,42.05
2023-10-02T21:53:14.925Z,41.88
2023-10-02T21:55:42.059Z,38.92
2023-10-02T21:58:11.881Z,41.42
2023-10-02T22:00:51.344Z,40.67
2023-10-02T22:06:06.686Z,42.50
2023-10-02T22:08:34.246Z,38.33
2023-10-02T22:11:08.676Z,42.83
2023-10-02T22:13:37.474Z,42.10
2023-10-02T22:16:05.591Z,42.20
2023-10-02T22:18:32.755Z,46.65
2023-10-02T22:21:11.144Z,42.83
2023-10-02T22:26:29.499Z,41.88
2023-10-02T22:29:02.918Z,43.38
2023-10-02T22:31:39.535Z,45.40
2023-10-02T22:36:58.555Z,48.03
2023-10-02T22:39:29.717Z,40.95
2023-10-02T22:41:59.090Z,44.45
2023-10-02T22:44:25.768Z,40.90
2023-10-02T22:47:19.787Z,40.90
2023-10-02T22:49:46.710Z,51.78
2023-10-02T22:52:17.498Z,47.65
2023-10-02T22:54:45.791Z,46.47
2023-10-02T22:57:13.027Z,45.72
2023-10-02T22:59:40.269Z,45.47
2023-10-02T23:02:10.371Z,47.40
2023-10-02T23:04:40.125Z,45.92
2023-10-02T23:07:08.682Z,46.15
2023-10-02T23:09:55.699Z,47.72
2023-10-02T23:12:25.501Z,49.88
2023-10-02T23:15:00.649Z,46.08
2023-10-02T23:17:32.763Z,44.28
2023-10-02T23:20:07.837Z,44.30
2023-10-02T23:22:34.920Z,45.75
2023-10-02T23:25:05.075Z,49.83
2023-10-02T23:27:36.090Z,43.95
2023-10-02T23:37:18.328Z,48.35
2023-10-02T23:39:45.025Z,49.72
2023-10-02T23:42:11.641Z,46.80
2023-10-02T23:44:40.718Z,46.63
2023-10-02T23:47:07.761Z,45.63
2023-10-02T23:49:55.927Z,45.53
2023-10-02T23:52:27.834Z,48.95
2023-10-02T23:55:00.455Z,47.20
